sensor_id;sensor_type;location;lat;lon;timestamp;P1;durP1;ratioP1;P2;durP2;ratioP2
64907;SDS011;64365;-1.756;110.040;2022-12-07T00:00:17;12.88;;;5.63;;
64907;SDS011;64365;-1.756;110.040;2022-12-07T00:02:44;12.18;;;6.32;;
64907;SDS011;64365;-1.756;110.040;2022-12-07T00:05:10;9.25;;;5.78;;
64907;SDS011;64365;-1.756;110.040;2022-12-07T00:07:37;13.10;;;5.72;;
64907;SDS011;64365;-1.756;110.040;2022-12-07T00:10:04;12.20;;;6.82;;
64907;SDS011;64365;-1.756;110.040;2022-12-07T00:12:32;13.15;;;6.05;;
64907;SDS011;64365;-1.756;110.040;2022-12-07T00:14:58;11.35;;;6.20;;
64907;SDS011;64365;-1.756;110.040;2022-12-07T00:17:26;15.93;;;5.65;;
64907;SDS011;64365;-1.756;110.040;2022-12-07T00:19:53;11.73;;;6.63;;
64907;SDS011;64365;-1.756;110.040;2022-12-07T00:22:19;15.80;;;6.07;;
64907;SDS011;64365;-1.756;110.040;2022-12-07T00:24:46;12.70;;;5.32;;
64907;SDS011;64365;-1.756;110.040;2022-12-07T00:27:12;12.90;;;5.45;;
64907;SDS011;64365;-1.756;110.040;2022-12-07T00:29:39;10.90;;;6.10;;
64907;SDS011;64365;-1.756;110.040;2022-12-07T00:32:05;7.00;;;4.65;;
64907;SDS011;64365;-1.756;110.040;2022-12-07T00:34:33;9.43;;;5.45;;
64907;SDS011;64365;-1.756;110.040;2022-12-07T00:37:00;9.27;;;4.88;;
64907;SDS011;64365;-1.756;110.040;2022-12-07T00:39:27;11.93;;;5.45;;
64907;SDS011;64365;-1.756;110.040;2022-12-07T00:41:53;11.80;;;5.45;;
64907;SDS011;64365;-1.756;110.040;2022-12-07T00:44:20;11.63;;;5.20;;
64907;SDS011;64365;-1.756;110.040;2022-12-07T00:46:47;9.07;;;5.40;;
64907;SDS011;64365;-1.756;110.040;2022-12-07T00:49:14;12.93;;;5.78;;
64907;SDS011;64365;-1.756;110.040;2022-12-07T00:51:41;18.10;;;5.85;;
64907;SDS011;64365;-1.756;110.040;2022-12-07T00:54:08;11.15;;;5.78;;
64907;SDS011;64365;-1.756;110.040;2022-12-07T00:56:35;11.60;;;5.55;;
64907;SDS011;64365;-1.756;110.040;2022-12-07T00:59:02;7.72;;;5.43;;
64907;SDS011;64365;-1.756;110.040;2022-12-07T01:01:30;9.27;;;5.85;;
64907;SDS011;64365;-1.756;110.040;2022-12-07T01:03:58;10.20;;;5.63;;
64907;SDS011;64365;-1.756;110.040;2022-12-07T01:06:26;9.35;;;5.50;;
64907;SDS011;64365;-1.756;110.040;2022-12-07T01:08:54;11.20;;;4.95;;
64907;SDS011;64365;-1.756;110.040;2022-12-07T01:11:21;11.15;;;5.25;;
64907;SDS011;64365;-1.756;110.040;2022-12-07T01:13:50;15.50;;;5.25;;
64907;SDS011;64365;-1.756;110.040;2022-12-07T01:16:17;7.88;;;5.28;;
64907;SDS011;64365;-1.756;110.040;2022-12-07T01:18:45;9.75;;;4.78;;
64907;SDS011;64365;-1.756;110.040;2022-12-07T01:21:13;9.82;;;5.35;;
64907;SDS011;64365;-1.756;110.040;2022-12-07T01:23:42;8.07;;;4.70;;
64907;SDS011;64365;-1.756;110.040;2022-12-07T01:26:11;10.20;;;4.85;;
64907;SDS011;64365;-1.756;110.040;2022-12-07T01:28:40;9.48;;;5.25;;
64907;SDS011;64365;-1.756;110.040;2022-12-07T01:31:08;12.10;;;6.05;;
64907;SDS011;64365;-1.756;110.040;2022-12-07T01:33:37;10.73;;;5.88;;
64907;SDS011;64365;-1.756;110.040;2022-12-07T01:36:04;9.93;;;5.03;;
64907;SDS011;64365;-1.756;110.040;2022-12-07T01:38:32;6.68;;;4.43;;
64907;SDS011;64365;-1.756;110.040;2022-12-07T01:41:00;9.98;;;6.78;;
64907;SDS011;64365;-1.756;110.040;2022-12-07T01:43:29;10.07;;;4.60;;
64907;SDS011;64365;-1.756;110.040;2022-12-07T01:45:57;8.48;;;5.30;;
64907;SDS011;64365;-1.756;110.040;2022-12-07T01:48:26;10.18;;;5.30;;
64907;SDS011;64365;-1.756;110.040;2022-12-07T01:50:55;13.20;;;4.93;;
64907;SDS011;64365;-1.756;110.040;2022-12-07T01:53:26;10.13;;;5.28;;
64907;SDS011;64365;-1.756;110.040;2022-12-07T01:55:55;10.18;;;4.47;;
64907;SDS011;64365;-1.756;110.040;2022-12-07T01:58:24;13.85;;;4.88;;
64907;SDS011;64365;-1.756;110.040;2022-12-07T02:00:52;9.52;;;4.13;;
64907;SDS011;64365;-1.756;110.040;2022-12-07T02:03:20;17.33;;;4.15;;
64907;SDS011;64365;-1.756;110.040;2022-12-07T02:05:50;9.30;;;3.97;;
64907;SDS011;64365;-1.756;110.040;2022-12-07T02:08:18;12.48;;;4.47;;
64907;SDS011;64365;-1.756;110.040;2022-12-07T02:10:46;7.45;;;3.90;;
64907;SDS011;64365;-1.756;110.040;2022-12-07T02:13:13;12.57;;;3.65;;
64907;SDS011;64365;-1.756;110.040;2022-12-07T02:15:49;10.20;;;3.75;;
64907;SDS011;64365;-1.756;110.040;2022-12-07T02:18:31;8.95;;;4.20;;
64907;SDS011;64365;-1.756;110.040;2022-12-07T02:21:06;7.97;;;3.60;;
64907;SDS011;64365;-1.756;110.040;2022-12-07T02:23:41;9.40;;;3.60;;
64907;SDS011;64365;-1.756;110.040;2022-12-07T02:26:37;11.43;;;5.30;;
64907;SDS011;64365;-1.756;110.040;2022-12-07T02:29:27;8.77;;;4.13;;
64907;SDS011;64365;-1.756;110.040;2022-12-07T02:32:01;9.23;;;4.13;;
64907;SDS011;64365;-1.756;110.040;2022-12-07T02:37:07;9.05;;;4.25;;
64907;SDS011;64365;-1.756;110.040;2022-12-07T02:39:42;6.38;;;4.43;;
64907;SDS011;64365;-1.756;110.040;2022-12-07T02:42:13;9.10;;;3.88;;
64907;SDS011;64365;-1.756;110.040;2022-12-07T02:44:44;8.63;;;3.83;;
64907;SDS011;64365;-1.756;110.040;2022-12-07T02:47:13;9.15;;;4.07;;
64907;SDS011;64365;-1.756;110.040;2022-12-07T02:49:43;8.15;;;3.88;;
64907;SDS011;64365;-1.756;110.040;2022-12-07T02:52:10;9.90;;;4.65;;
64907;SDS011;64365;-1.756;110.040;2022-12-07T02:54:37;9.43;;;3.90;;
64907;SDS011;64365;-1.756;110.040;2022-12-07T02:57:06;8.50;;;3.90;;
64907;SDS011;64365;-1.756;110.040;2022-12-07T02:59:46;15.48;;;3.78;;
64907;SDS011;64365;-1.756;110.040;2022-12-07T03:02:24;6.88;;;3.53;;
64907;SDS011;64365;-1.756;110.040;2022-12-07T03:05:00;9.35;;;3.90;;
64907;SDS011;64365;-1.756;110.040;2022-12-07T03:07:37;11.98;;;3.80;;
64907;SDS011;64365;-1.756;110.040;2022-12-07T03:10:10;8.98;;;3.95;;
64907;SDS011;64365;-1.756;110.040;2022-12-07T03:12:46;8.13;;;3.28;;
64907;SDS011;64365;-1.756;110.040;2022-12-07T03:15:25;9.45;;;3.78;;
64907;SDS011;64365;-1.756;110.040;2022-12-07T03:17:57;7.97;;;3.38;;
64907;SDS011;64365;-1.756;110.040;2022-12-07T03:20:27;4.95;;;3.30;;
64907;SDS011;64365;-1.756;110.040;2022-12-07T03:22:56;8.98;;;4.00;;
64907;SDS011;64365;-1.756;110.040;2022-12-07T03:25:24;10.32;;;3.70;;
64907;SDS011;64365;-1.756;110.040;2022-12-07T03:27:53;8.73;;;3.50;;
64907;SDS011;64365;-1.756;110.040;2022-12-07T03:30:26;9.75;;;3.92;;
64907;SDS011;64365;-1.756;110.040;2022-12-07T03:32:57;9.40;;;3.33;;
64907;SDS011;64365;-1.756;110.040;2022-12-07T03:35:29;9.52;;;3.97;;
64907;SDS011;64365;-1.756;110.040;2022-12-07T03:38:02;8.98;;;3.78;;
64907;SDS011;64365;-1.756;110.040;2022-12-07T03:40:39;5.57;;;3.42;;
64907;SDS011;64365;-1.756;110.040;2022-12-07T03:43:10;7.93;;;3.83;;
64907;SDS011;64365;-1.756;110.040;2022-12-07T03:45:40;4.50;;;3.45;;
64907;SDS011;64365;-1.756;110.040;2022-12-07T03:48:11;6.72;;;3.63;;
64907;SDS011;64365;-1.756;110.040;2022-12-07T03:50:48;6.88;;;3.90;;
64907;SDS011;64365;-1.756;110.040;2022-12-07T03:53:20;6.30;;;3.67;;
64907;SDS011;64365;-1.756;110.040;2022-12-07T03:55:51;6.38;;;3.47;;
64907;SDS011;64365;-1.756;110.040;2022-12-07T03:58:20;6.55;;;3.83;;
64907;SDS011;64365;-1.756;110.040;2022-12-07T04:00:50;6.88;;;3.03;;
64907;SDS011;64365;-1.756;110.040;2022-12-07T04:03:18;7.35;;;3.30;;
64907;SDS011;64365;-1.756;110.040;2022-12-07T04:05:44;6.55;;;3.03;;
64907;SDS011;64365;-1.756;110.040;2022-12-07T04:08:11;6.35;;;3.20;;
64907;SDS011;64365;-1.756;110.040;2022-12-07T04:10:38;8.13;;;3.40;;
64907;SDS011;64365;-1.756;110.040;2022-12-07T04:13:04;9.30;;;3.00;;
64907;SDS011;64365;-1.756;110.040;2022-12-07T04:15:31;8.25;;;3.20;;
64907;SDS011;64365;-1.756;110.040;2022-12-07T04:17:59;6.57;;;3.53;;
64907;SDS011;64365;-1.756;110.040;2022-12-07T04:20:25;10.27;;;3.70;;
64907;SDS011;64365;-1.756;110.040;2022-12-07T04:22:52;6.10;;;2.83;;
64907;SDS011;64365;-1.756;110.040;2022-12-07T04:25:18;14.80;;;3.55;;
64907;SDS011;64365;-1.756;110.040;2022-12-07T04:27:45;7.60;;;2.53;;
64907;SDS011;64365;-1.756;110.040;2022-12-07T04:30:12;10.50;;;2.90;;
64907;SDS011;64365;-1.756;110.040;2022-12-07T04:32:38;8.73;;;2.63;;
64907;SDS011;64365;-1.756;110.040;2022-12-07T04:35:07;7.60;;;2.70;;
64907;SDS011;64365;-1.756;110.040;2022-12-07T04:37:34;6.57;;;2.58;;
64907;SDS011;64365;-1.756;110.040;2022-12-07T04:40:00;4.18;;;2.50;;
64907;SDS011;64365;-1.756;110.040;2022-12-07T04:42:27;6.65;;;2.70;;
64907;SDS011;64365;-1.756;110.040;2022-12-07T04:44:54;5.35;;;2.50;;
64907;SDS011;64365;-1.756;110.040;2022-12-07T04:47:20;7.32;;;3.35;;
64907;SDS011;64365;-1.756;110.040;2022-12-07T04:49:47;11.70;;;2.80;;
64907;SDS011;64365;-1.756;110.040;2022-12-07T04:52:15;5.63;;;2.88;;
64907;SDS011;64365;-1.756;110.040;2022-12-07T04:54:41;6.97;;;2.53;;
64907;SDS011;64365;-1.756;110.040;2022-12-07T04:57:08;8.75;;;3.03;;
64907;SDS011;64365;-1.756;110.040;2022-12-07T04:59:34;8.63;;;3.10;;
64907;SDS011;64365;-1.756;110.040;2022-12-07T05:02:01;8.52;;;2.67;;
64907;SDS011;64365;-1.756;110.040;2022-12-07T05:04:28;6.00;;;2.88;;
64907;SDS011;64365;-1.756;110.040;2022-12-07T05:06:54;9.75;;;2.70;;
64907;SDS011;64365;-1.756;110.040;2022-12-07T05:09:22;7.32;;;2.75;;
64907;SDS011;64365;-1.756;110.040;2022-12-07T05:11:49;8.35;;;3.00;;
64907;SDS011;64365;-1.756;110.040;2022-12-07T05:14:19;10.50;;;2.70;;
64907;SDS011;64365;-1.756;110.040;2022-12-07T05:16:47;7.53;;;2.97;;
64907;SDS011;64365;-1.756;110.040;2022-12-07T05:19:15;5.40;;;2.50;;
64907;SDS011;64365;-1.756;110.040;2022-12-07T05:21:42;11.25;;;3.08;;
64907;SDS011;64365;-1.756;110.040;2022-12-07T05:24:10;6.63;;;2.65;;
64907;SDS011;64365;-1.756;110.040;2022-12-07T05:26:39;6.95;;;3.42;;
64907;SDS011;64365;-1.756;110.040;2022-12-07T05:29:06;6.07;;;3.35;;
64907;SDS011;64365;-1.756;110.040;2022-12-07T05:31:33;8.07;;;2.85;;
64907;SDS011;64365;-1.756;110.040;2022-12-07T05:34:00;7.80;;;2.58;;
64907;SDS011;64365;-1.756;110.040;2022-12-07T05:36:26;7.18;;;3.38;;
64907;SDS011;64365;-1.756;110.040;2022-12-07T05:38:56;13.30;;;3.80;;
64907;SDS011;64365;-1.756;110.040;2022-12-07T05:41:22;4.85;;;3.28;;
64907;SDS011;64365;-1.756;110.040;2022-12-07T05:44:08;6.07;;;2.88;;
64907;SDS011;64365;-1.756;110.040;2022-12-07T05:46:35;8.02;;;3.03;;
64907;SDS011;64365;-1.756;110.040;2022-12-07T05:49:02;9.48;;;3.58;;
64907;SDS011;64365;-1.756;110.040;2022-12-07T05:51:29;7.85;;;3.25;;
64907;SDS011;64365;-1.756;110.040;2022-12-07T05:53:55;15.32;;;4.13;;
64907;SDS011;64365;-1.756;110.040;2022-12-07T05:56:22;5.70;;;3.08;;
64907;SDS011;64365;-1.756;110.040;2022-12-07T05:58:49;7.90;;;3.25;;
64907;SDS011;64365;-1.756;110.040;2022-12-07T06:04:01;8.55;;;3.10;;
64907;SDS011;64365;-1.756;110.040;2022-12-07T06:06:27;5.13;;;2.67;;
64907;SDS011;64365;-1.756;110.040;2022-12-07T06:08:54;9.80;;;2.92;;
64907;SDS011;64365;-1.756;110.040;2022-12-07T06:11:21;9.07;;;3.25;;
64907;SDS011;64365;-1.756;110.040;2022-12-07T06:16:31;11.68;;;3.50;;
64907;SDS011;64365;-1.756;110.040;2022-12-07T06:18:59;8.60;;;3.03;;
64907;SDS011;64365;-1.756;110.040;2022-12-07T06:21:26;10.02;;;2.63;;
64907;SDS011;64365;-1.756;110.040;2022-12-07T06:23:52;9.00;;;3.70;;
64907;SDS011;64365;-1.756;110.040;2022-12-07T06:26:20;6.78;;;3.08;;
64907;SDS011;64365;-1.756;110.040;2022-12-07T06:28:46;7.55;;;3.22;;
64907;SDS011;64365;-1.756;110.040;2022-12-07T06:31:13;12.95;;;3.85;;
64907;SDS011;64365;-1.756;110.040;2022-12-07T06:33:39;8.40;;;3.92;;
64907;SDS011;64365;-1.756;110.040;2022-12-07T06:36:08;8.65;;;3.78;;
64907;SDS011;64365;-1.756;110.040;2022-12-07T06:38:35;9.43;;;3.50;;
64907;SDS011;64365;-1.756;110.040;2022-12-07T06:41:02;10.77;;;4.45;;
64907;SDS011;64365;-1.756;110.040;2022-12-07T06:43:29;8.52;;;3.88;;
64907;SDS011;64365;-1.756;110.040;2022-12-07T06:45:56;8.38;;;3.95;;
64907;SDS011;64365;-1.756;110.040;2022-12-07T06:48:22;9.60;;;3.70;;
64907;SDS011;64365;-1.756;110.040;2022-12-07T06:50:49;8.57;;;3.65;;
64907;SDS011;64365;-1.756;110.040;2022-12-07T06:53:17;12.75;;;4.40;;
64907;SDS011;64365;-1.756;110.040;2022-12-07T06:55:43;12.70;;;5.15;;
64907;SDS011;64365;-1.756;110.040;2022-12-07T06:58:10;12.00;;;5.30;;
64907;SDS011;64365;-1.756;110.040;2022-12-07T07:00:37;13.30;;;6.15;;
64907;SDS011;64365;-1.756;110.040;2022-12-07T07:03:03;9.27;;;4.72;;
64907;SDS011;64365;-1.756;110.040;2022-12-07T07:05:30;14.77;;;4.68;;
64907;SDS011;64365;-1.756;110.040;2022-12-07T07:07:56;8.98;;;4.03;;
64907;SDS011;64365;-1.756;110.040;2022-12-07T07:10:24;11.82;;;4.57;;
64907;SDS011;64365;-1.756;110.040;2022-12-07T07:12:51;9.00;;;3.53;;
64907;SDS011;64365;-1.756;110.040;2022-12-07T07:15:17;9.63;;;4.50;;
64907;SDS011;64365;-1.756;110.040;2022-12-07T07:17:44;8.63;;;4.47;;
64907;SDS011;64365;-1.756;110.040;2022-12-07T07:20:11;7.90;;;5.05;;
64907;SDS011;64365;-1.756;110.040;2022-12-07T07:22:38;11.43;;;5.22;;
64907;SDS011;64365;-1.756;110.040;2022-12-07T07:25:05;9.45;;;4.63;;
64907;SDS011;64365;-1.756;110.040;2022-12-07T07:27:33;9.18;;;4.68;;
64907;SDS011;64365;-1.756;110.040;2022-12-07T07:30:00;7.55;;;4.45;;
64907;SDS011;64365;-1.756;110.040;2022-12-07T07:32:28;12.02;;;6.00;;
64907;SDS011;64365;-1.756;110.040;2022-12-07T07:34:55;17.05;;;7.20;;
64907;SDS011;64365;-1.756;110.040;2022-12-07T07:37:22;15.57;;;6.32;;
64907;SDS011;64365;-1.756;110.040;2022-12-07T07:39:49;10.93;;;6.00;;
64907;SDS011;64365;-1.756;110.040;2022-12-07T07:42:16;15.15;;;6.47;;
64907;SDS011;64365;-1.756;110.040;2022-12-07T07:44:44;14.55;;;5.90;;
64907;SDS011;64365;-1.756;110.040;2022-12-07T07:47:10;14.57;;;6.35;;
64907;SDS011;64365;-1.756;110.040;2022-12-07T07:49:37;15.02;;;5.60;;
64907;SDS011;64365;-1.756;110.040;2022-12-07T07:52:04;10.70;;;5.13;;
64907;SDS011;64365;-1.756;110.040;2022-12-07T07:54:31;9.77;;;5.40;;
64907;SDS011;64365;-1.756;110.040;2022-12-07T07:56:58;14.57;;;6.25;;
64907;SDS011;64365;-1.756;110.040;2022-12-07T07:59:24;12.55;;;5.47;;
64907;SDS011;64365;-1.756;110.040;2022-12-07T08:01:52;19.23;;;11.50;;
64907;SDS011;64365;-1.756;110.040;2022-12-07T08:04:19;18.25;;;14.63;;
64907;SDS011;64365;-1.756;110.040;2022-12-07T08:06:46;13.23;;;7.05;;
64907;SDS011;64365;-1.756;110.040;2022-12-07T08:09:12;10.80;;;5.20;;
64907;SDS011;64365;-1.756;110.040;2022-12-07T08:11:39;5.90;;;3.60;;
64907;SDS011;64365;-1.756;110.040;2022-12-07T08:14:06;5.53;;;3.63;;
64907;SDS011;64365;-1.756;110.040;2022-12-07T08:16:32;10.52;;;4.10;;
64907;SDS011;64365;-1.756;110.040;2022-12-07T08:19:00;7.68;;;3.20;;
64907;SDS011;64365;-1.756;110.040;2022-12-07T08:21:27;8.00;;;4.03;;
64907;SDS011;64365;-1.756;110.040;2022-12-07T08:23:53;7.80;;;3.75;;
64907;SDS011;64365;-1.756;110.040;2022-12-07T08:26:20;9.48;;;4.97;;
64907;SDS011;64365;-1.756;110.040;2022-12-07T08:28:47;14.35;;;7.32;;
64907;SDS011;64365;-1.756;110.040;2022-12-07T08:31:14;14.40;;;7.93;;
64907;SDS011;64365;-1.756;110.040;2022-12-07T08:33:44;16.25;;;7.38;;
64907;SDS011;64365;-1.756;110.040;2022-12-07T08:36:12;13.48;;;5.57;;
64907;SDS011;64365;-1.756;110.040;2022-12-07T08:38:39;10.93;;;4.20;;
64907;SDS011;64365;-1.756;110.040;2022-12-07T08:41:07;12.82;;;4.45;;
64907;SDS011;64365;-1.756;110.040;2022-12-07T08:43:34;9.68;;;3.30;;
64907;SDS011;64365;-1.756;110.040;2022-12-07T08:46:04;15.85;;;3.63;;
64907;SDS011;64365;-1.756;110.040;2022-12-07T08:48:35;7.80;;;3.58;;
64907;SDS011;64365;-1.756;110.040;2022-12-07T08:51:06;8.13;;;3.22;;
64907;SDS011;64365;-1.756;110.040;2022-12-07T08:53:34;7.22;;;3.40;;
64907;SDS011;64365;-1.756;110.040;2022-12-07T08:56:03;4.82;;;3.60;;
64907;SDS011;64365;-1.756;110.040;2022-12-07T08:58:31;5.75;;;3.67;;
64907;SDS011;64365;-1.756;110.040;2022-12-07T09:00:59;9.68;;;3.90;;
64907;SDS011;64365;-1.756;110.040;2022-12-07T09:03:26;6.93;;;2.90;;
64907;SDS011;64365;-1.756;110.040;2022-12-07T09:05:53;8.68;;;3.10;;
64907;SDS011;64365;-1.756;110.040;2022-12-07T09:08:20;6.00;;;2.70;;
64907;SDS011;64365;-1.756;110.040;2022-12-07T09:10:50;7.75;;;3.10;;
64907;SDS011;64365;-1.756;110.040;2022-12-07T09:13:16;6.65;;;3.22;;
64907;SDS011;64365;-1.756;110.040;2022-12-07T09:15:43;11.55;;;4.10;;
64907;SDS011;64365;-1.756;110.040;2022-12-07T09:18:09;5.80;;;3.00;;
64907;SDS011;64365;-1.756;110.040;2022-12-07T09:20:36;6.38;;;3.78;;
64907;SDS011;64365;-1.756;110.040;2022-12-07T09:23:05;15.63;;;4.95;;
64907;SDS011;64365;-1.756;110.040;2022-12-07T09:25:32;9.63;;;4.00;;
64907;SDS011;64365;-1.756;110.040;2022-12-07T09:28:00;7.93;;;3.83;;
64907;SDS011;64365;-1.756;110.040;2022-12-07T09:30:26;6.82;;;3.70;;
64907;SDS011;64365;-1.756;110.040;2022-12-07T09:32:53;7.22;;;3.13;;
64907;SDS011;64365;-1.756;110.040;2022-12-07T09:35:21;7.68;;;3.13;;
64907;SDS011;64365;-1.756;110.040;2022-12-07T09:37:48;6.05;;;3.10;;
64907;SDS011;64365;-1.756;110.040;2022-12-07T09:40:15;11.52;;;3.40;;
64907;SDS011;64365;-1.756;110.040;2022-12-07T09:42:44;7.18;;;3.67;;
64907;SDS011;64365;-1.756;110.040;2022-12-07T09:45:15;7.68;;;3.45;;
64907;SDS011;64365;-1.756;110.040;2022-12-07T09:47:45;6.30;;;3.28;;
64907;SDS011;64365;-1.756;110.040;2022-12-07T09:50:14;5.05;;;2.80;;
64907;SDS011;64365;-1.756;110.040;2022-12-07T09:52:43;7.18;;;3.90;;
64907;SDS011;64365;-1.756;110.040;2022-12-07T09:55:13;7.45;;;3.80;;
64907;SDS011;64365;-1.756;110.040;2022-12-07T09:57:43;9.05;;;3.40;;
64907;SDS011;64365;-1.756;110.040;2022-12-07T10:00:12;9.57;;;3.30;;
64907;SDS011;64365;-1.756;110.040;2022-12-07T10:02:44;6.72;;;3.47;;
64907;SDS011;64365;-1.756;110.040;2022-12-07T10:05:13;7.32;;;3.35;;
64907;SDS011;64365;-1.756;110.040;2022-12-07T10:07:42;7.82;;;3.47;;
64907;SDS011;64365;-1.756;110.040;2022-12-07T10:10:13;7.85;;;3.22;;
64907;SDS011;64365;-1.756;110.040;2022-12-07T10:12:52;9.48;;;3.80;;
64907;SDS011;64365;-1.756;110.040;2022-12-07T10:15:20;9.40;;;3.50;;
64907;SDS011;64365;-1.756;110.040;2022-12-07T10:17:49;11.07;;;3.83;;
64907;SDS011;64365;-1.756;110.040;2022-12-07T10:20:23;8.20;;;3.97;;
64907;SDS011;64365;-1.756;110.040;2022-12-07T10:22:55;9.20;;;3.80;;
64907;SDS011;64365;-1.756;110.040;2022-12-07T10:25:25;7.05;;;3.88;;
64907;SDS011;64365;-1.756;110.040;2022-12-07T10:27:57;5.60;;;3.05;;
64907;SDS011;64365;-1.756;110.040;2022-12-07T10:30:25;12.27;;;3.53;;
64907;SDS011;64365;-1.756;110.040;2022-12-07T10:32:53;10.43;;;4.20;;
64907;SDS011;64365;-1.756;110.040;2022-12-07T10:35:21;5.95;;;2.95;;
64907;SDS011;64365;-1.756;110.040;2022-12-07T10:37:50;8.52;;;3.08;;
64907;SDS011;64365;-1.756;110.040;2022-12-07T10:43:02;9.65;;;3.38;;
64907;SDS011;64365;-1.756;110.040;2022-12-07T10:45:42;6.15;;;3.05;;
64907;SDS011;64365;-1.756;110.040;2022-12-07T10:48:33;7.80;;;3.00;;
64907;SDS011;64365;-1.756;110.040;2022-12-07T10:51:08;9.82;;;3.50;;
64907;SDS011;64365;-1.756;110.040;2022-12-07T10:53:44;10.75;;;3.53;;
64907;SDS011;64365;-1.756;110.040;2022-12-07T10:56:29;7.32;;;3.20;;
64907;SDS011;64365;-1.756;110.040;2022-12-07T10:59:25;8.52;;;3.67;;
64907;SDS011;64365;-1.756;110.040;2022-12-07T11:02:22;9.63;;;3.30;;
64907;SDS011;64365;-1.756;110.040;2022-12-07T11:05:02;11.18;;;3.72;;
64907;SDS011;64365;-1.756;110.040;2022-12-07T11:07:39;5.10;;;3.53;;
64907;SDS011;64365;-1.756;110.040;2022-12-07T11:10:15;10.30;;;3.38;;
64907;SDS011;64365;-1.756;110.040;2022-12-07T11:12:52;7.88;;;3.97;;
64907;SDS011;64365;-1.756;110.040;2022-12-07T11:15:33;9.68;;;5.13;;
64907;SDS011;64365;-1.756;110.040;2022-12-07T11:18:09;13.48;;;5.45;;
64907;SDS011;64365;-1.756;110.040;2022-12-07T11:20:48;10.48;;;5.43;;
64907;SDS011;64365;-1.756;110.040;2022-12-07T11:23:25;7.82;;;3.88;;
64907;SDS011;64365;-1.756;110.040;2022-12-07T11:26:04;9.77;;;4.60;;
64907;SDS011;64365;-1.756;110.040;2022-12-07T11:28:41;13.82;;;5.70;;
64907;SDS011;64365;-1.756;110.040;2022-12-07T11:31:21;18.00;;;4.85;;
64907;SDS011;64365;-1.756;110.040;2022-12-07T11:33:56;13.38;;;4.95;;
64907;SDS011;64365;-1.756;110.040;2022-12-07T11:36:33;7.40;;;3.30;;
64907;SDS011;64365;-1.756;110.040;2022-12-07T11:39:04;6.97;;;3.47;;
64907;SDS011;64365;-1.756;110.040;2022-12-07T11:41:42;11.27;;;4.47;;
64907;SDS011;64365;-1.756;110.040;2022-12-07T11:44:13;9.60;;;3.67;;
64907;SDS011;64365;-1.756;110.040;2022-12-07T11:46:51;7.65;;;3.30;;
64907;SDS011;64365;-1.756;110.040;2022-12-07T11:49:27;7.57;;;4.40;;
64907;SDS011;64365;-1.756;110.040;2022-12-07T11:52:05;8.68;;;4.72;;
64907;SDS011;64365;-1.756;110.040;2022-12-07T11:54:40;8.85;;;3.97;;
64907;SDS011;64365;-1.756;110.040;2022-12-07T11:57:10;10.57;;;3.70;;
64907;SDS011;64365;-1.756;110.040;2022-12-07T11:59:45;6.68;;;3.53;;
64907;SDS011;64365;-1.756;110.040;2022-12-07T12:02:18;8.93;;;3.80;;
64907;SDS011;64365;-1.756;110.040;2022-12-07T12:04:51;13.15;;;5.15;;
64907;SDS011;64365;-1.756;110.040;2022-12-07T12:07:23;7.95;;;3.35;;
64907;SDS011;64365;-1.756;110.040;2022-12-07T12:09:52;11.95;;;3.88;;
64907;SDS011;64365;-1.756;110.040;2022-12-07T12:12:31;8.93;;;3.70;;
64907;SDS011;64365;-1.756;110.040;2022-12-07T12:15:20;6.88;;;3.75;;
64907;SDS011;64365;-1.756;110.040;2022-12-07T12:20:53;7.00;;;3.25;;
64907;SDS011;64365;-1.756;110.040;2022-12-07T12:23:26;7.88;;;2.75;;
64907;SDS011;64365;-1.756;110.040;2022-12-07T12:26:01;4.05;;;1.98;;
64907;SDS011;64365;-1.756;110.040;2022-12-07T12:28:32;4.35;;;1.90;;
64907;SDS011;64365;-1.756;110.040;2022-12-07T12:33:32;3.85;;;1.75;;
64907;SDS011;64365;-1.756;110.040;2022-12-07T12:38:50;5.35;;;3.33;;
64907;SDS011;64365;-1.756;110.040;2022-12-07T12:41:52;3.75;;;2.45;;
64907;SDS011;64365;-1.756;110.040;2022-12-07T12:44:38;8.85;;;3.58;;
64907;SDS011;64365;-1.756;110.040;2022-12-07T12:47:37;3.63;;;2.90;;
64907;SDS011;64365;-1.756;110.040;2022-12-07T12:50:32;4.78;;;3.38;;
64907;SDS011;64365;-1.756;110.040;2022-12-07T12:53:12;4.88;;;3.28;;
64907;SDS011;64365;-1.756;110.040;2022-12-07T12:58:49;4.43;;;2.90;;
64907;SDS011;64365;-1.756;110.040;2022-12-07T13:01:50;7.38;;;3.55;;
64907;SDS011;64365;-1.756;110.040;2022-12-07T13:04:24;10.20;;;4.95;;
64907;SDS011;64365;-1.756;110.040;2022-12-07T13:07:12;6.70;;;4.47;;
64907;SDS011;64365;-1.756;110.040;2022-12-07T13:09:59;6.50;;;3.50;;
64907;SDS011;64365;-1.756;110.040;2022-12-07T13:12:28;5.00;;;3.03;;
64907;SDS011;64365;-1.756;110.040;2022-12-07T13:14:58;5.80;;;3.67;;
64907;SDS011;64365;-1.756;110.040;2022-12-07T13:20:41;4.05;;;2.55;;
64907;SDS011;64365;-1.756;110.040;2022-12-07T13:23:09;7.70;;;2.75;;
64907;SDS011;64365;-1.756;110.040;2022-12-07T13:25:37;9.30;;;3.28;;
64907;SDS011;64365;-1.756;110.040;2022-12-07T13:28:15;6.97;;;2.67;;
64907;SDS011;64365;-1.756;110.040;2022-12-07T13:30:45;6.07;;;2.78;;
64907;SDS011;64365;-1.756;110.040;2022-12-07T13:33:17;5.10;;;2.67;;
64907;SDS011;64365;-1.756;110.040;2022-12-07T13:35:45;4.63;;;2.55;;
64907;SDS011;64365;-1.756;110.040;2022-12-07T13:41:01;4.30;;;2.30;;
64907;SDS011;64365;-1.756;110.040;2022-12-07T13:43:48;6.05;;;2.78;;
64907;SDS011;64365;-1.756;110.040;2022-12-07T13:46:19;5.32;;;2.70;;
64907;SDS011;64365;-1.756;110.040;2022-12-07T13:48:50;8.55;;;2.85;;
64907;SDS011;64365;-1.756;110.040;2022-12-07T13:51:18;7.00;;;3.22;;
64907;SDS011;64365;-1.756;110.040;2022-12-07T13:53:47;10.10;;;3.65;;
64907;SDS011;64365;-1.756;110.040;2022-12-07T13:56:15;9.32;;;3.85;;
64907;SDS011;64365;-1.756;110.040;2022-12-07T13:58:42;11.10;;;5.05;;
64907;SDS011;64365;-1.756;110.040;2022-12-07T14:01:11;10.70;;;5.53;;
64907;SDS011;64365;-1.756;110.040;2022-12-07T14:03:38;10.35;;;4.85;;
64907;SDS011;64365;-1.756;110.040;2022-12-07T14:06:06;10.20;;;4.78;;
64907;SDS011;64365;-1.756;110.040;2022-12-07T14:08:43;7.13;;;4.45;;
64907;SDS011;64365;-1.756;110.040;2022-12-07T14:11:13;9.70;;;5.60;;
64907;SDS011;64365;-1.756;110.040;2022-12-07T14:13:56;9.40;;;5.75;;
64907;SDS011;64365;-1.756;110.040;2022-12-07T14:16:26;7.88;;;4.40;;
64907;SDS011;64365;-1.756;110.040;2022-12-07T14:18:55;12.15;;;5.05;;
64907;SDS011;64365;-1.756;110.040;2022-12-07T14:21:23;10.68;;;6.32;;
64907;SDS011;64365;-1.756;110.040;2022-12-07T14:24:11;8.55;;;5.75;;
64907;SDS011;64365;-1.756;110.040;2022-12-07T14:26:41;7.35;;;4.18;;
64907;SDS011;64365;-1.756;110.040;2022-12-07T14:29:21;5.88;;;4.20;;
64907;SDS011;64365;-1.756;110.040;2022-12-07T14:31:56;7.88;;;4.60;;
64907;SDS011;64365;-1.756;110.040;2022-12-07T14:34:24;11.90;;;5.65;;
64907;SDS011;64365;-1.756;110.040;2022-12-07T14:36:51;12.32;;;6.05;;
64907;SDS011;64365;-1.756;110.040;2022-12-07T14:39:18;10.15;;;5.32;;
64907;SDS011;64365;-1.756;110.040;2022-12-07T14:41:44;12.52;;;5.97;;
64907;SDS011;64365;-1.756;110.040;2022-12-07T14:44:17;8.05;;;4.10;;
64907;SDS011;64365;-1.756;110.040;2022-12-07T14:46:44;8.68;;;3.58;;
64907;SDS011;64365;-1.756;110.040;2022-12-07T14:49:12;13.50;;;3.20;;
64907;SDS011;64365;-1.756;110.040;2022-12-07T14:51:39;6.78;;;2.55;;
64907;SDS011;64365;-1.756;110.040;2022-12-07T14:54:11;3.33;;;2.10;;
64907;SDS011;64365;-1.756;110.040;2022-12-07T14:56:41;4.63;;;2.63;;
64907;SDS011;64365;-1.756;110.040;2022-12-07T14:59:08;5.55;;;2.60;;
64907;SDS011;64365;-1.756;110.040;2022-12-07T15:01:35;7.28;;;3.00;;
64907;SDS011;64365;-1.756;110.040;2022-12-07T15:04:02;6.88;;;2.55;;